Terminal Aerodrome Forecast
Issued by NWS Cleveland, OH

Home | Current Version | Previous Version | Text Only | Print | Product List | Glossary On
Versions: 1 2 3 4 5 6 7 8 9 10 11 12 13 14 15 16 17 18 19
000
FTUS41 KCLE 212300
TAFTOL
TAF
KTOL 212338Z 2200/2224 36010KT P6SM OVC025
     FM220300 36010KT P6SM OVC018
     FM220900 36010KT P6SM OVC025
     FM221500 36008KT P6SM BKN035
     FM221800 01008KT P6SM SCT035=

USA.gov is the U.S. government's official web portal to all federal, state and local government web resources and services.